sensor_id;sensor_type;location;lat;lon;timestamp;P1;durP1;ratioP1;P2;durP2;ratioP2
46745;SDS011;32493;50.514;9.678;2023-03-05T00:00:27;9.60;;;1.80;;
46745;SDS011;32493;50.514;9.678;2023-03-05T00:02:32;13.38;;;3.05;;
46745;SDS011;32493;50.514;9.678;2023-03-05T00:04:40;9.43;;;1.80;;
46745;SDS011;32493;50.514;9.678;2023-03-05T00:06:44;8.18;;;1.65;;
46745;SDS011;32493;50.514;9.678;2023-03-05T00:08:50;15.50;;;2.95;;
46745;SDS011;32493;50.514;9.678;2023-03-05T00:10:57;7.00;;;2.15;;
46745;SDS011;32493;50.514;9.678;2023-03-05T00:13:05;11.45;;;1.90;;
46745;SDS011;32493;50.514;9.678;2023-03-05T00:15:10;10.45;;;2.30;;
46745;SDS011;32493;50.514;9.678;2023-03-05T00:17:18;9.70;;;2.00;;
46745;SDS011;32493;50.514;9.678;2023-03-05T00:19:23;9.30;;;2.05;;
46745;SDS011;32493;50.514;9.678;2023-03-05T00:21:29;8.30;;;1.75;;
46745;SDS011;32493;50.514;9.678;2023-03-05T00:23:36;5.53;;;2.08;;
46745;SDS011;32493;50.514;9.678;2023-03-05T00:25:43;7.97;;;2.20;;
46745;SDS011;32493;50.514;9.678;2023-03-05T00:27:48;9.80;;;2.40;;
46745;SDS011;32493;50.514;9.678;2023-03-05T00:29:57;10.73;;;1.92;;
46745;SDS011;32493;50.514;9.678;2023-03-05T00:32:03;10.88;;;2.42;;
46745;SDS011;32493;50.514;9.678;2023-03-05T00:34:10;10.18;;;2.17;;
46745;SDS011;32493;50.514;9.678;2023-03-05T00:36:21;10.70;;;3.20;;
46745;SDS011;32493;50.514;9.678;2023-03-05T00:38:28;6.43;;;2.33;;
46745;SDS011;32493;50.514;9.678;2023-03-05T00:40:34;12.27;;;2.25;;
46745;SDS011;32493;50.514;9.678;2023-03-05T00:42:40;7.93;;;2.00;;
46745;SDS011;32493;50.514;9.678;2023-03-05T00:44:49;11.05;;;2.38;;
46745;SDS011;32493;50.514;9.678;2023-03-05T00:46:56;7.28;;;2.67;;
46745;SDS011;32493;50.514;9.678;2023-03-05T00:49:03;9.85;;;2.10;;
46745;SDS011;32493;50.514;9.678;2023-03-05T00:51:09;12.20;;;2.72;;
46745;SDS011;32493;50.514;9.678;2023-03-05T00:53:14;12.00;;;2.88;;
46745;SDS011;32493;50.514;9.678;2023-03-05T00:55:19;10.75;;;2.33;;
46745;SDS011;32493;50.514;9.678;2023-03-05T00:57:24;9.02;;;1.75;;
46745;SDS011;32493;50.514;9.678;2023-03-05T00:59:31;11.95;;;2.72;;
46745;SDS011;32493;50.514;9.678;2023-03-05T01:01:37;13.70;;;2.80;;
46745;SDS011;32493;50.514;9.678;2023-03-05T01:03:46;8.43;;;2.05;;
46745;SDS011;32493;50.514;9.678;2023-03-05T01:05:51;9.00;;;2.13;;
46745;SDS011;32493;50.514;9.678;2023-03-05T01:07:58;6.57;;;1.50;;
46745;SDS011;32493;50.514;9.678;2023-03-05T01:10:05;4.25;;;1.55;;
46745;SDS011;32493;50.514;9.678;2023-03-05T01:12:14;7.28;;;2.15;;
46745;SDS011;32493;50.514;9.678;2023-03-05T01:14:21;9.18;;;1.98;;
46745;SDS011;32493;50.514;9.678;2023-03-05T01:16:28;12.18;;;2.20;;
46745;SDS011;32493;50.514;9.678;2023-03-05T01:18:34;3.63;;;1.45;;
46745;SDS011;32493;50.514;9.678;2023-03-05T01:20:43;4.38;;;1.83;;
46745;SDS011;32493;50.514;9.678;2023-03-05T01:22:49;5.43;;;1.85;;
46745;SDS011;32493;50.514;9.678;2023-03-05T01:24:55;9.60;;;2.45;;
46745;SDS011;32493;50.514;9.678;2023-03-05T01:27:00;8.10;;;2.08;;
46745;SDS011;32493;50.514;9.678;2023-03-05T01:29:05;4.53;;;1.85;;
46745;SDS011;32493;50.514;9.678;2023-03-05T01:31:14;6.05;;;1.73;;
46745;SDS011;32493;50.514;9.678;2023-03-05T01:33:19;12.80;;;2.05;;
46745;SDS011;32493;50.514;9.678;2023-03-05T01:35:24;7.43;;;1.80;;
46745;SDS011;32493;50.514;9.678;2023-03-05T01:37:35;9.50;;;1.80;;
46745;SDS011;32493;50.514;9.678;2023-03-05T01:41:45;5.85;;;2.00;;
46745;SDS011;32493;50.514;9.678;2023-03-05T01:43:54;10.32;;;2.13;;
46745;SDS011;32493;50.514;9.678;2023-03-05T01:48:35;6.25;;;1.88;;
46745;SDS011;32493;50.514;9.678;2023-03-05T01:50:41;9.07;;;2.22;;
46745;SDS011;32493;50.514;9.678;2023-03-05T01:52:51;5.85;;;2.08;;
46745;SDS011;32493;50.514;9.678;2023-03-05T01:55:03;8.27;;;2.30;;
46745;SDS011;32493;50.514;9.678;2023-03-05T01:57:13;9.13;;;2.70;;
46745;SDS011;32493;50.514;9.678;2023-03-05T01:59:21;7.30;;;2.10;;
46745;SDS011;32493;50.514;9.678;2023-03-05T02:01:33;12.43;;;3.15;;
46745;SDS011;32493;50.514;9.678;2023-03-05T02:03:43;10.45;;;2.17;;
46745;SDS011;32493;50.514;9.678;2023-03-05T02:05:50;9.23;;;2.13;;
46745;SDS011;32493;50.514;9.678;2023-03-05T02:07:59;8.73;;;2.10;;
46745;SDS011;32493;50.514;9.678;2023-03-05T02:10:14;8.35;;;2.30;;
46745;SDS011;32493;50.514;9.678;2023-03-05T02:12:22;9.93;;;2.50;;
46745;SDS011;32493;50.514;9.678;2023-03-05T02:14:27;8.90;;;2.17;;
46745;SDS011;32493;50.514;9.678;2023-03-05T02:16:33;5.28;;;1.83;;
46745;SDS011;32493;50.514;9.678;2023-03-05T02:18:41;7.85;;;1.80;;
46745;SDS011;32493;50.514;9.678;2023-03-05T02:20:48;6.57;;;2.00;;
46745;SDS011;32493;50.514;9.678;2023-03-05T02:22:59;5.70;;;1.80;;
46745;SDS011;32493;50.514;9.678;2023-03-05T02:25:13;7.40;;;1.70;;
46745;SDS011;32493;50.514;9.678;2023-03-05T02:27:22;10.43;;;2.10;;
46745;SDS011;32493;50.514;9.678;2023-03-05T02:29:38;7.65;;;2.47;;
46745;SDS011;32493;50.514;9.678;2023-03-05T02:31:48;6.57;;;2.00;;
46745;SDS011;32493;50.514;9.678;2023-03-05T02:33:53;6.38;;;1.80;;
46745;SDS011;32493;50.514;9.678;2023-03-05T02:36:01;5.03;;;1.95;;
46745;SDS011;32493;50.514;9.678;2023-03-05T02:42:20;5.82;;;1.48;;
46745;SDS011;32493;50.514;9.678;2023-03-05T02:44:28;4.95;;;1.90;;
46745;SDS011;32493;50.514;9.678;2023-03-05T02:46:34;5.40;;;1.27;;
46745;SDS011;32493;50.514;9.678;2023-03-05T02:48:39;17.45;;;2.55;;
46745;SDS011;32493;50.514;9.678;2023-03-05T02:50:47;7.07;;;1.70;;
46745;SDS011;32493;50.514;9.678;2023-03-05T02:52:53;12.70;;;2.00;;
46745;SDS011;32493;50.514;9.678;2023-03-05T02:55:00;7.78;;;1.90;;
46745;SDS011;32493;50.514;9.678;2023-03-05T02:57:06;4.93;;;1.73;;
46745;SDS011;32493;50.514;9.678;2023-03-05T02:59:11;6.93;;;1.75;;
46745;SDS011;32493;50.514;9.678;2023-03-05T03:01:17;5.10;;;1.70;;
46745;SDS011;32493;50.514;9.678;2023-03-05T03:03:22;8.25;;;1.63;;
46745;SDS011;32493;50.514;9.678;2023-03-05T03:05:27;8.27;;;1.60;;
46745;SDS011;32493;50.514;9.678;2023-03-05T03:07:33;3.85;;;1.20;;
46745;SDS011;32493;50.514;9.678;2023-03-05T03:09:38;5.57;;;1.77;;
46745;SDS011;32493;50.514;9.678;2023-03-05T03:11:47;4.22;;;1.33;;
46745;SDS011;32493;50.514;9.678;2023-03-05T03:13:54;4.07;;;1.63;;
46745;SDS011;32493;50.514;9.678;2023-03-05T03:16:00;3.53;;;1.40;;
46745;SDS011;32493;50.514;9.678;2023-03-05T03:18:10;5.88;;;1.60;;
46745;SDS011;32493;50.514;9.678;2023-03-05T03:20:17;6.63;;;1.95;;
46745;SDS011;32493;50.514;9.678;2023-03-05T03:22:22;4.17;;;1.47;;
46745;SDS011;32493;50.514;9.678;2023-03-05T03:24:28;4.43;;;1.70;;
46745;SDS011;32493;50.514;9.678;2023-03-05T03:26:36;8.07;;;2.25;;
46745;SDS011;32493;50.514;9.678;2023-03-05T03:28:43;5.45;;;1.88;;
46745;SDS011;32493;50.514;9.678;2023-03-05T03:30:50;8.13;;;2.22;;
46745;SDS011;32493;50.514;9.678;2023-03-05T03:32:57;6.13;;;1.70;;
46745;SDS011;32493;50.514;9.678;2023-03-05T03:35:02;6.97;;;1.80;;
46745;SDS011;32493;50.514;9.678;2023-03-05T03:37:08;3.63;;;1.35;;
46745;SDS011;32493;50.514;9.678;2023-03-05T03:39:16;7.30;;;2.05;;
46745;SDS011;32493;50.514;9.678;2023-03-05T03:41:21;5.93;;;1.90;;
46745;SDS011;32493;50.514;9.678;2023-03-05T03:43:27;7.38;;;2.13;;
46745;SDS011;32493;50.514;9.678;2023-03-05T03:45:38;4.22;;;1.50;;
46745;SDS011;32493;50.514;9.678;2023-03-05T03:47:48;5.82;;;2.22;;
46745;SDS011;32493;50.514;9.678;2023-03-05T03:49:54;8.20;;;1.98;;
46745;SDS011;32493;50.514;9.678;2023-03-05T03:51:59;3.88;;;1.73;;
46745;SDS011;32493;50.514;9.678;2023-03-05T03:54:04;6.35;;;1.98;;
46745;SDS011;32493;50.514;9.678;2023-03-05T03:56:09;4.38;;;1.80;;
46745;SDS011;32493;50.514;9.678;2023-03-05T03:58:14;6.25;;;2.25;;
46745;SDS011;32493;50.514;9.678;2023-03-05T04:00:20;5.85;;;1.88;;
46745;SDS011;32493;50.514;9.678;2023-03-05T04:02:27;4.25;;;1.92;;
46745;SDS011;32493;50.514;9.678;2023-03-05T04:04:35;6.75;;;2.08;;
46745;SDS011;32493;50.514;9.678;2023-03-05T04:06:40;7.00;;;2.83;;
46745;SDS011;32493;50.514;9.678;2023-03-05T04:08:46;7.35;;;1.98;;
46745;SDS011;32493;50.514;9.678;2023-03-05T04:10:51;4.57;;;1.70;;
46745;SDS011;32493;50.514;9.678;2023-03-05T04:12:56;5.70;;;1.50;;
46745;SDS011;32493;50.514;9.678;2023-03-05T04:15:03;6.78;;;2.00;;
46745;SDS011;32493;50.514;9.678;2023-03-05T04:17:10;3.92;;;1.70;;
46745;SDS011;32493;50.514;9.678;2023-03-05T04:19:19;4.72;;;1.63;;
46745;SDS011;32493;50.514;9.678;2023-03-05T04:21:25;4.80;;;1.58;;
46745;SDS011;32493;50.514;9.678;2023-03-05T04:23:30;4.80;;;1.50;;
46745;SDS011;32493;50.514;9.678;2023-03-05T04:25:36;5.10;;;1.45;;
46745;SDS011;32493;50.514;9.678;2023-03-05T04:27:44;3.80;;;1.60;;
46745;SDS011;32493;50.514;9.678;2023-03-05T04:29:49;6.10;;;1.92;;
46745;SDS011;32493;50.514;9.678;2023-03-05T04:31:54;3.50;;;1.45;;
46745;SDS011;32493;50.514;9.678;2023-03-05T04:33:59;6.93;;;1.70;;
46745;SDS011;32493;50.514;9.678;2023-03-05T04:36:10;5.40;;;1.42;;
46745;SDS011;32493;50.514;9.678;2023-03-05T04:40:21;4.30;;;1.10;;
46745;SDS011;32493;50.514;9.678;2023-03-05T04:42:26;5.10;;;1.65;;
46745;SDS011;32493;50.514;9.678;2023-03-05T04:44:31;4.07;;;1.38;;
46745;SDS011;32493;50.514;9.678;2023-03-05T04:46:36;3.58;;;0.95;;
46745;SDS011;32493;50.514;9.678;2023-03-05T04:48:41;3.33;;;1.20;;
46745;SDS011;32493;50.514;9.678;2023-03-05T04:50:46;5.85;;;1.48;;
46745;SDS011;32493;50.514;9.678;2023-03-05T04:52:54;7.75;;;1.55;;
46745;SDS011;32493;50.514;9.678;2023-03-05T04:55:00;3.25;;;1.17;;
46745;SDS011;32493;50.514;9.678;2023-03-05T04:57:06;5.05;;;1.17;;
46745;SDS011;32493;50.514;9.678;2023-03-05T04:59:12;5.28;;;1.42;;
46745;SDS011;32493;50.514;9.678;2023-03-05T05:01:18;3.35;;;1.00;;
46745;SDS011;32493;50.514;9.678;2023-03-05T05:03:24;6.15;;;1.33;;
46745;SDS011;32493;50.514;9.678;2023-03-05T05:05:29;6.22;;;1.30;;
46745;SDS011;32493;50.514;9.678;2023-03-05T05:07:39;3.00;;;1.10;;
46745;SDS011;32493;50.514;9.678;2023-03-05T05:09:48;6.95;;;1.10;;
46745;SDS011;32493;50.514;9.678;2023-03-05T05:11:54;3.13;;;1.10;;
46745;SDS011;32493;50.514;9.678;2023-03-05T05:13:59;4.90;;;1.08;;
46745;SDS011;32493;50.514;9.678;2023-03-05T05:16:05;2.22;;;0.80;;
46745;SDS011;32493;50.514;9.678;2023-03-05T05:18:10;4.13;;;1.00;;
46745;SDS011;32493;50.514;9.678;2023-03-05T05:20:15;9.43;;;1.33;;
46745;SDS011;32493;50.514;9.678;2023-03-05T05:22:24;5.40;;;0.90;;
46745;SDS011;32493;50.514;9.678;2023-03-05T05:24:33;5.18;;;1.17;;
46745;SDS011;32493;50.514;9.678;2023-03-05T05:26:40;5.13;;;1.00;;
46745;SDS011;32493;50.514;9.678;2023-03-05T05:28:47;3.97;;;0.98;;
46745;SDS011;32493;50.514;9.678;2023-03-05T05:30:54;3.35;;;0.90;;
46745;SDS011;32493;50.514;9.678;2023-03-05T05:33:00;5.22;;;1.00;;
46745;SDS011;32493;50.514;9.678;2023-03-05T05:35:06;3.00;;;0.90;;
46745;SDS011;32493;50.514;9.678;2023-03-05T05:37:13;4.15;;;1.15;;
46745;SDS011;32493;50.514;9.678;2023-03-05T05:39:18;2.78;;;0.90;;
46745;SDS011;32493;50.514;9.678;2023-03-05T05:41:26;8.48;;;1.83;;
46745;SDS011;32493;50.514;9.678;2023-03-05T05:43:33;4.63;;;0.90;;
46745;SDS011;32493;50.514;9.678;2023-03-05T05:45:39;3.58;;;1.00;;
46745;SDS011;32493;50.514;9.678;2023-03-05T05:47:44;5.53;;;1.15;;
46745;SDS011;32493;50.514;9.678;2023-03-05T05:49:49;4.95;;;0.88;;
46745;SDS011;32493;50.514;9.678;2023-03-05T05:51:57;3.63;;;1.00;;
46745;SDS011;32493;50.514;9.678;2023-03-05T05:56:10;2.72;;;0.80;;
46745;SDS011;32493;50.514;9.678;2023-03-05T05:58:16;5.40;;;1.08;;
46745;SDS011;32493;50.514;9.678;2023-03-05T06:00:30;3.03;;;1.38;;
46745;SDS011;32493;50.514;9.678;2023-03-05T06:02:36;4.18;;;0.68;;
46745;SDS011;32493;50.514;9.678;2023-03-05T06:04:42;4.80;;;0.90;;
46745;SDS011;32493;50.514;9.678;2023-03-05T06:06:50;3.38;;;0.70;;
46745;SDS011;32493;50.514;9.678;2023-03-05T06:08:56;5.38;;;0.80;;
46745;SDS011;32493;50.514;9.678;2023-03-05T06:11:01;6.53;;;0.90;;
46745;SDS011;32493;50.514;9.678;2023-03-05T06:13:07;3.90;;;0.65;;
46745;SDS011;32493;50.514;9.678;2023-03-05T06:15:12;2.65;;;0.80;;
46745;SDS011;32493;50.514;9.678;2023-03-05T06:17:20;5.00;;;0.80;;
46745;SDS011;32493;50.514;9.678;2023-03-05T06:19:31;2.17;;;0.65;;
46745;SDS011;32493;50.514;9.678;2023-03-05T06:21:37;2.80;;;0.77;;
46745;SDS011;32493;50.514;9.678;2023-03-05T06:23:44;3.13;;;0.90;;
46745;SDS011;32493;50.514;9.678;2023-03-05T06:25:50;6.80;;;1.00;;
46745;SDS011;32493;50.514;9.678;2023-03-05T06:27:55;4.55;;;0.80;;
46745;SDS011;32493;50.514;9.678;2023-03-05T06:30:01;7.80;;;0.95;;
46745;SDS011;32493;50.514;9.678;2023-03-05T06:32:07;3.15;;;0.75;;
46745;SDS011;32493;50.514;9.678;2023-03-05T06:34:15;3.28;;;1.17;;
46745;SDS011;32493;50.514;9.678;2023-03-05T06:36:24;2.65;;;0.80;;
46745;SDS011;32493;50.514;9.678;2023-03-05T06:38:30;1.27;;;0.80;;
46745;SDS011;32493;50.514;9.678;2023-03-05T06:40:37;2.97;;;0.80;;
46745;SDS011;32493;50.514;9.678;2023-03-05T06:42:42;1.70;;;0.70;;
46745;SDS011;32493;50.514;9.678;2023-03-05T06:44:47;2.10;;;0.65;;
46745;SDS011;32493;50.514;9.678;2023-03-05T06:46:52;4.32;;;0.70;;
46745;SDS011;32493;50.514;9.678;2023-03-05T06:48:59;4.47;;;0.70;;
46745;SDS011;32493;50.514;9.678;2023-03-05T06:51:14;2.53;;;0.70;;
46745;SDS011;32493;50.514;9.678;2023-03-05T06:53:20;3.38;;;0.60;;
46745;SDS011;32493;50.514;9.678;2023-03-05T06:55:34;3.70;;;0.98;;
46745;SDS011;32493;50.514;9.678;2023-03-05T06:57:40;2.55;;;0.80;;
46745;SDS011;32493;50.514;9.678;2023-03-05T06:59:46;4.40;;;0.90;;
46745;SDS011;32493;50.514;9.678;2023-03-05T07:01:51;2.85;;;0.88;;
46745;SDS011;32493;50.514;9.678;2023-03-05T07:03:57;2.53;;;0.82;;
46745;SDS011;32493;50.514;9.678;2023-03-05T07:06:03;2.63;;;0.93;;
46745;SDS011;32493;50.514;9.678;2023-03-05T07:08:13;2.45;;;0.70;;
46745;SDS011;32493;50.514;9.678;2023-03-05T07:10:19;3.50;;;0.68;;
46745;SDS011;32493;50.514;9.678;2023-03-05T07:12:25;4.40;;;0.70;;
46745;SDS011;32493;50.514;9.678;2023-03-05T07:14:30;3.22;;;0.80;;
46745;SDS011;32493;50.514;9.678;2023-03-05T07:16:37;1.48;;;0.57;;
46745;SDS011;32493;50.514;9.678;2023-03-05T07:18:42;2.58;;;0.77;;
46745;SDS011;32493;50.514;9.678;2023-03-05T07:20:48;1.70;;;0.52;;
46745;SDS011;32493;50.514;9.678;2023-03-05T07:22:56;1.48;;;0.60;;
46745;SDS011;32493;50.514;9.678;2023-03-05T07:25:05;3.35;;;0.77;;
46745;SDS011;32493;50.514;9.678;2023-03-05T07:27:12;3.50;;;0.88;;
46745;SDS011;32493;50.514;9.678;2023-03-05T07:29:18;2.33;;;0.80;;
46745;SDS011;32493;50.514;9.678;2023-03-05T07:31:24;2.08;;;0.50;;
46745;SDS011;32493;50.514;9.678;2023-03-05T07:33:32;2.63;;;0.70;;
46745;SDS011;32493;50.514;9.678;2023-03-05T07:35:39;2.92;;;0.88;;
46745;SDS011;32493;50.514;9.678;2023-03-05T07:37:44;5.18;;;1.08;;
46745;SDS011;32493;50.514;9.678;2023-03-05T07:39:49;6.88;;;1.10;;
46745;SDS011;32493;50.514;9.678;2023-03-05T07:41:57;2.35;;;0.70;;
46745;SDS011;32493;50.514;9.678;2023-03-05T07:44:20;5.22;;;0.63;;
46745;SDS011;32493;50.514;9.678;2023-03-05T07:46:28;2.55;;;0.80;;
46745;SDS011;32493;50.514;9.678;2023-03-05T07:48:38;3.67;;;0.80;;
46745;SDS011;32493;50.514;9.678;2023-03-05T07:50:44;2.20;;;0.80;;
46745;SDS011;32493;50.514;9.678;2023-03-05T07:52:49;2.90;;;0.90;;
46745;SDS011;32493;50.514;9.678;2023-03-05T07:54:58;4.57;;;1.10;;
46745;SDS011;32493;50.514;9.678;2023-03-05T07:57:07;3.38;;;0.77;;
46745;SDS011;32493;50.514;9.678;2023-03-05T07:59:14;3.97;;;0.82;;
46745;SDS011;32493;50.514;9.678;2023-03-05T08:01:20;1.02;;;0.70;;
46745;SDS011;32493;50.514;9.678;2023-03-05T08:03:26;2.72;;;0.50;;
46745;SDS011;32493;50.514;9.678;2023-03-05T08:05:31;3.28;;;0.65;;
46745;SDS011;32493;50.514;9.678;2023-03-05T08:07:38;0.95;;;0.43;;
46745;SDS011;32493;50.514;9.678;2023-03-05T08:09:43;3.15;;;0.68;;
46745;SDS011;32493;50.514;9.678;2023-03-05T08:11:48;1.13;;;0.40;;
46745;SDS011;32493;50.514;9.678;2023-03-05T08:13:56;3.78;;;0.88;;
46745;SDS011;32493;50.514;9.678;2023-03-05T08:16:05;1.20;;;0.50;;
46745;SDS011;32493;50.514;9.678;2023-03-05T08:18:17;1.85;;;0.75;;
46745;SDS011;32493;50.514;9.678;2023-03-05T08:20:26;3.92;;;0.73;;
46745;SDS011;32493;50.514;9.678;2023-03-05T08:22:32;2.72;;;0.90;;
46745;SDS011;32493;50.514;9.678;2023-03-05T08:24:37;0.98;;;0.50;;
46745;SDS011;32493;50.514;9.678;2023-03-05T08:26:43;2.55;;;0.38;;
46745;SDS011;32493;50.514;9.678;2023-03-05T08:28:48;2.60;;;0.70;;
46745;SDS011;32493;50.514;9.678;2023-03-05T08:30:56;2.88;;;0.50;;
46745;SDS011;32493;50.514;9.678;2023-03-05T08:33:01;1.95;;;0.52;;
46745;SDS011;32493;50.514;9.678;2023-03-05T08:35:07;1.33;;;0.70;;
46745;SDS011;32493;50.514;9.678;2023-03-05T08:37:14;2.78;;;0.80;;
46745;SDS011;32493;50.514;9.678;2023-03-05T08:39:19;3.75;;;0.80;;
46745;SDS011;32493;50.514;9.678;2023-03-05T08:41:27;1.70;;;0.70;;
46745;SDS011;32493;50.514;9.678;2023-03-05T08:43:33;3.25;;;0.90;;
46745;SDS011;32493;50.514;9.678;2023-03-05T08:45:38;3.20;;;0.93;;
46745;SDS011;32493;50.514;9.678;2023-03-05T08:47:45;2.60;;;0.70;;
46745;SDS011;32493;50.514;9.678;2023-03-05T08:51:58;2.08;;;0.70;;
46745;SDS011;32493;50.514;9.678;2023-03-05T08:54:03;0.98;;;0.50;;
46745;SDS011;32493;50.514;9.678;2023-03-05T08:56:09;2.15;;;0.70;;
46745;SDS011;32493;50.514;9.678;2023-03-05T08:58:16;2.00;;;0.70;;
46745;SDS011;32493;50.514;9.678;2023-03-05T09:00:22;3.08;;;0.65;;
46745;SDS011;32493;50.514;9.678;2023-03-05T09:02:28;2.22;;;0.63;;
46745;SDS011;32493;50.514;9.678;2023-03-05T09:04:39;4.15;;;0.88;;
46745;SDS011;32493;50.514;9.678;2023-03-05T09:06:45;1.30;;;0.80;;
46745;SDS011;32493;50.514;9.678;2023-03-05T09:08:50;2.28;;;0.68;;
46745;SDS011;32493;50.514;9.678;2023-03-05T09:10:56;3.00;;;0.77;;
46745;SDS011;32493;50.514;9.678;2023-03-05T09:13:02;2.53;;;0.80;;
46745;SDS011;32493;50.514;9.678;2023-03-05T09:15:08;2.88;;;0.73;;
46745;SDS011;32493;50.514;9.678;2023-03-05T09:17:15;1.92;;;0.80;;
46745;SDS011;32493;50.514;9.678;2023-03-05T09:19:20;2.63;;;0.90;;
46745;SDS011;32493;50.514;9.678;2023-03-05T09:21:28;3.13;;;1.05;;
46745;SDS011;32493;50.514;9.678;2023-03-05T09:23:34;3.42;;;1.33;;
46745;SDS011;32493;50.514;9.678;2023-03-05T09:25:39;5.22;;;1.08;;
46745;SDS011;32493;50.514;9.678;2023-03-05T09:27:46;2.17;;;0.65;;
46745;SDS011;32493;50.514;9.678;2023-03-05T09:29:52;1.70;;;1.20;;
46745;SDS011;32493;50.514;9.678;2023-03-05T09:31:58;3.22;;;1.08;;
46745;SDS011;32493;50.514;9.678;2023-03-05T09:34:06;5.13;;;1.23;;
46745;SDS011;32493;50.514;9.678;2023-03-05T09:36:18;2.88;;;0.82;;
46745;SDS011;32493;50.514;9.678;2023-03-05T09:38:28;4.07;;;1.48;;
46745;SDS011;32493;50.514;9.678;2023-03-05T09:42:59;3.10;;;1.10;;
46745;SDS011;32493;50.514;9.678;2023-03-05T09:45:16;6.65;;;1.13;;
46745;SDS011;32493;50.514;9.678;2023-03-05T09:47:38;3.20;;;1.02;;
46745;SDS011;32493;50.514;9.678;2023-03-05T09:50:00;3.70;;;1.00;;
46745;SDS011;32493;50.514;9.678;2023-03-05T09:52:11;3.50;;;0.98;;
46745;SDS011;32493;50.514;9.678;2023-03-05T09:54:23;3.40;;;0.98;;
46745;SDS011;32493;50.514;9.678;2023-03-05T09:56:45;1.60;;;0.70;;
46745;SDS011;32493;50.514;9.678;2023-03-05T09:58:58;1.88;;;0.90;;
46745;SDS011;32493;50.514;9.678;2023-03-05T10:01:14;3.55;;;0.90;;
46745;SDS011;32493;50.514;9.678;2023-03-05T10:03:29;4.53;;;1.00;;
46745;SDS011;32493;50.514;9.678;2023-03-05T10:05:55;5.78;;;1.15;;
46745;SDS011;32493;50.514;9.678;2023-03-05T10:10:16;1.58;;;0.85;;
46745;SDS011;32493;50.514;9.678;2023-03-05T10:12:31;1.55;;;0.82;;
46745;SDS011;32493;50.514;9.678;2023-03-05T10:14:43;4.30;;;1.20;;
46745;SDS011;32493;50.514;9.678;2023-03-05T10:16:52;4.28;;;1.05;;
46745;SDS011;32493;50.514;9.678;2023-03-05T10:19:59;2.45;;;0.68;;
46745;SDS011;32493;50.514;9.678;2023-03-05T10:22:49;2.50;;;0.77;;
46745;SDS011;32493;50.514;9.678;2023-03-05T10:25:19;2.25;;;0.70;;
46745;SDS011;32493;50.514;9.678;2023-03-05T10:27:41;1.10;;;0.80;;
46745;SDS011;32493;50.514;9.678;2023-03-05T10:29:57;2.78;;;0.77;;
46745;SDS011;32493;50.514;9.678;2023-03-05T10:32:19;1.50;;;0.77;;
46745;SDS011;32493;50.514;9.678;2023-03-05T10:34:49;1.45;;;0.70;;
46745;SDS011;32493;50.514;9.678;2023-03-05T10:40:03;2.10;;;0.73;;
46745;SDS011;32493;50.514;9.678;2023-03-05T10:42:33;2.17;;;0.63;;
46745;SDS011;32493;50.514;9.678;2023-03-05T10:44:49;2.80;;;0.85;;
46745;SDS011;32493;50.514;9.678;2023-03-05T10:46:57;3.65;;;1.00;;
46745;SDS011;32493;50.514;9.678;2023-03-05T10:49:05;4.07;;;0.85;;
46745;SDS011;32493;50.514;9.678;2023-03-05T10:51:23;2.17;;;0.70;;
46745;SDS011;32493;50.514;9.678;2023-03-05T10:53:39;4.00;;;1.00;;
46745;SDS011;32493;50.514;9.678;2023-03-05T10:55:59;4.43;;;1.27;;
46745;SDS011;32493;50.514;9.678;2023-03-05T10:58:12;3.53;;;1.70;;
46745;SDS011;32493;50.514;9.678;2023-03-05T11:00:20;5.40;;;1.13;;
46745;SDS011;32493;50.514;9.678;2023-03-05T11:02:27;4.93;;;1.48;;
46745;SDS011;32493;50.514;9.678;2023-03-05T11:04:33;3.80;;;1.50;;
46745;SDS011;32493;50.514;9.678;2023-03-05T11:06:45;5.78;;;1.83;;
46745;SDS011;32493;50.514;9.678;2023-03-05T11:08:53;6.78;;;1.70;;
46745;SDS011;32493;50.514;9.678;2023-03-05T11:11:02;4.05;;;1.70;;
46745;SDS011;32493;50.514;9.678;2023-03-05T11:13:22;3.13;;;1.38;;
46745;SDS011;32493;50.514;9.678;2023-03-05T11:15:31;3.70;;;1.70;;
46745;SDS011;32493;50.514;9.678;2023-03-05T11:17:36;3.13;;;1.90;;
46745;SDS011;32493;50.514;9.678;2023-03-05T11:19:46;3.92;;;1.48;;
46745;SDS011;32493;50.514;9.678;2023-03-05T11:22:03;4.32;;;1.27;;
46745;SDS011;32493;50.514;9.678;2023-03-05T11:24:18;6.65;;;2.20;;
46745;SDS011;32493;50.514;9.678;2023-03-05T11:26:23;3.85;;;1.65;;
46745;SDS011;32493;50.514;9.678;2023-03-05T11:28:33;4.40;;;1.80;;
46745;SDS011;32493;50.514;9.678;2023-03-05T11:30:52;4.40;;;1.83;;
46745;SDS011;32493;50.514;9.678;2023-03-05T11:33:06;4.47;;;2.00;;
46745;SDS011;32493;50.514;9.678;2023-03-05T11:35:25;1.35;;;0.90;;
46745;SDS011;32493;50.514;9.678;2023-03-05T11:37:35;3.75;;;1.48;;
46745;SDS011;32493;50.514;9.678;2023-03-05T11:39:40;2.30;;;1.20;;
46745;SDS011;32493;50.514;9.678;2023-03-05T11:41:47;4.57;;;1.70;;
46745;SDS011;32493;50.514;9.678;2023-03-05T11:43:57;4.38;;;1.90;;
46745;SDS011;32493;50.514;9.678;2023-03-05T11:46:08;4.32;;;1.90;;
46745;SDS011;32493;50.514;9.678;2023-03-05T11:48:17;3.65;;;1.67;;
46745;SDS011;32493;50.514;9.678;2023-03-05T11:50:28;3.42;;;1.77;;
46745;SDS011;32493;50.514;9.678;2023-03-05T11:52:37;5.28;;;2.10;;
46745;SDS011;32493;50.514;9.678;2023-03-05T11:54:52;5.40;;;2.30;;
46745;SDS011;32493;50.514;9.678;2023-03-05T11:57:05;6.25;;;2.28;;
46745;SDS011;32493;50.514;9.678;2023-03-05T11:59:18;5.18;;;2.40;;
46745;SDS011;32493;50.514;9.678;2023-03-05T12:01:31;4.95;;;2.05;;
46745;SDS011;32493;50.514;9.678;2023-03-05T12:03:39;4.43;;;1.75;;
46745;SDS011;32493;50.514;9.678;2023-03-05T12:05:48;3.13;;;1.85;;
46745;SDS011;32493;50.514;9.678;2023-03-05T12:07:59;4.75;;;2.33;;
46745;SDS011;32493;50.514;9.678;2023-03-05T12:10:12;9.10;;;2.10;;
46745;SDS011;32493;50.514;9.678;2023-03-05T12:12:26;2.67;;;1.42;;
46745;SDS011;32493;50.514;9.678;2023-03-05T12:14:47;5.30;;;2.30;;
46745;SDS011;32493;50.514;9.678;2023-03-05T12:17:01;3.15;;;1.40;;
46745;SDS011;32493;50.514;9.678;2023-03-05T12:19:26;4.20;;;2.10;;
46745;SDS011;32493;50.514;9.678;2023-03-05T12:21:41;5.53;;;2.20;;
46745;SDS011;32493;50.514;9.678;2023-03-05T12:23:48;6.50;;;2.38;;
46745;SDS011;32493;50.514;9.678;2023-03-05T12:25:59;3.53;;;1.33;;
46745;SDS011;32493;50.514;9.678;2023-03-05T12:28:05;6.38;;;2.88;;
46745;SDS011;32493;50.514;9.678;2023-03-05T12:33:01;5.50;;;2.25;;
46745;SDS011;32493;50.514;9.678;2023-03-05T12:35:20;5.72;;;3.25;;
46745;SDS011;32493;50.514;9.678;2023-03-05T12:40:33;8.65;;;3.63;;
46745;SDS011;32493;50.514;9.678;2023-03-05T12:45:21;5.25;;;2.63;;
46745;SDS011;32493;50.514;9.678;2023-03-05T12:47:32;5.95;;;3.15;;
46745;SDS011;32493;50.514;9.678;2023-03-05T12:49:42;6.70;;;3.30;;
46745;SDS011;32493;50.514;9.678;2023-03-05T12:51:49;6.45;;;2.92;;
46745;SDS011;32493;50.514;9.678;2023-03-05T12:53:57;7.88;;;3.42;;
46745;SDS011;32493;50.514;9.678;2023-03-05T12:56:31;5.00;;;2.03;;
46745;SDS011;32493;50.514;9.678;2023-03-05T12:58:39;7.07;;;3.58;;
46745;SDS011;32493;50.514;9.678;2023-03-05T13:00:51;6.95;;;2.45;;
46745;SDS011;32493;50.514;9.678;2023-03-05T13:03:03;8.52;;;3.63;;
46745;SDS011;32493;50.514;9.678;2023-03-05T13:05:18;8.98;;;3.75;;
46745;SDS011;32493;50.514;9.678;2023-03-05T13:07:28;7.80;;;3.60;;
46745;SDS011;32493;50.514;9.678;2023-03-05T13:09:33;5.85;;;2.03;;
46745;SDS011;32493;50.514;9.678;2023-03-05T13:11:38;10.48;;;4.13;;
46745;SDS011;32493;50.514;9.678;2023-03-05T13:13:46;9.20;;;4.05;;
46745;SDS011;32493;50.514;9.678;2023-03-05T13:15:52;7.90;;;4.03;;
46745;SDS011;32493;50.514;9.678;2023-03-05T13:17:57;5.00;;;2.90;;
46745;SDS011;32493;50.514;9.678;2023-03-05T13:20:25;8.68;;;3.42;;
46745;SDS011;32493;50.514;9.678;2023-03-05T13:22:34;7.10;;;2.70;;
46745;SDS011;32493;50.514;9.678;2023-03-05T13:24:41;6.37;;;2.67;;
46745;SDS011;32493;50.514;9.678;2023-03-05T13:26:47;9.27;;;3.40;;